New Delhi Safdarjung, India

12:35 AM IST on August 28, 2014 (GMT +0530)
New Delhi - GK2 | Change Station
CLOSE
Current Station
Personal Weather Station
Location: New Delhi, Delhi
Elevation: 810 ft
Nearby Weather Stations

Elev 810 ft 28.53 °N, 77.24 °E | Updated 3 seconds ago

Haze
Haze
89.4 °F
Feels Like 105 °F
N
1.0
Wind Variable Wind from NNE
Gusts 2.0 mph

Today
High -- | Low -- °F
--% Chance of Precip.
Yesterday
High -- | Low -- °F
Precip. -- in
5:57 AM 6:47 PM
Waxing Crescent, 4% visible
Pressure 29.65 in
Visibility 3.1 miles
Clouds Few 4000 ft
Heat Index 105 °F
Dew Point 79 °F
Humidity 71%
Rainfall 0.00 in
Snow Depth Not available.
UV 0.0 out of 12
Pollen Not available.
Air Quality Not available.
Flu Activity Not available.
METAR VIDP 271830Z 06005KT 5000 HZ FEW040 32/22 Q1004 NOSIG

More Conditions Fewer Conditions

Pressure 29.65 in
Visibility 3.1 miles
Clouds Few 4000 ft
Heat Index 105 °F
Dew Point 79 °F
Humidity 71%
Rainfall 0.00 in
Snow Depth Not available.
UV 0.0 out of 12
Pollen Not available.
Air Quality Not available.
Flu Activity Not available.
METAR VIDP 271830Z 06005KT 5000 HZ FEW040 32/22 Q1004 NOSIG

More Conditions Fewer Conditions

10-Day Weather Forecast

Almanac

Astronomy

Aug. 28, 2014 Rise Set
Actual Time 5:57 AM IST 6:47 PM IST
Civil Twilight 5:32 AM IST 7:11 PM IST
Nautical Twilight 5:04 AM IST 7:40 PM IST
Astronomical Twilight 4:35 AM IST 8:09 PM IST
Moon 8:08 AM IST (8/28) 8:14 PM IST (8/28)
Length of Visible Light 13h 38m
Length of Day
12h 50m
Tomorrow will be 1m 36s shorter.
Waxing Crescent, 4% of the Moon is Illuminated
Aug 27
Waxing Crescent
Sep 2
First Quarter
Sep 8
Full
Sep 15
Last Quarter
Sep 24
New

Yesterday's Extremes

Country Highs Country Lows

Community

WunderPhotos

Upload Photos

1,747,753 photos uploaded!

Nearby

Snow Depth

Not available.

Earthquake Activity

City Distance Mag. Time & Date
No recent earthquake activity has been reported nearby.
Minimum magnitude displayed is 2.5.

Coastal Water Temperatures

Place Temperature
No Stations Reporting

Nearby Weather Stations